Time;durP1;ratioP1;P1;durP2;ratioP2;P2;SDS_P1;SDS_P2;PMS_P1;PMS_P2;Temp;Humidity;BMP_temperature;BMP_pressure;BME280_temperature;BME280_humidity;BME280_pressure;Samples;Min_cycle;Max_cycle;Signal;HPM_P1;HPM_P2
2021/09/01 00:00:12;;;;;;;8.38;4.80;;;384.80;2329.60;;;;;;5092240;28;20027;-58
2021/09/01 00:02:39;;;;;;;8.45;4.75;;;384.80;2329.60;;;;;;5093201;28;20028;-58
2021/09/01 00:05:06;;;;;;;8.48;5.00;;;384.90;2329.60;;;;;;5093269;28;20032;-61
2021/09/01 00:07:32;;;;;;;6.22;4.68;;;384.90;2329.60;;;;;;5093366;28;20470;-61
2021/09/01 00:09:58;;;;;;;7.25;4.70;;;384.80;2329.60;;;;;;5093000;28;20062;-59
2021/09/01 00:12:24;;;;;;;6.78;5.50;;;384.80;2329.60;;;;;;5093482;28;20092;-59
2021/09/01 00:14:50;;;;;;;7.20;5.38;;;384.80;2329.60;;;;;;5084458;28;20410;-59
2021/09/01 00:17:16;;;;;;;9.32;5.50;;;384.80;2329.60;;;;;;5073276;28;20503;-58
2021/09/01 00:19:41;;;;;;;7.95;6.30;;;384.80;2329.60;;;;;;5072865;28;20028;-61
2021/09/01 00:22:07;;;;;;;5.82;4.60;;;384.80;2329.60;;;;;;5072796;28;20028;-58
2021/09/01 00:24:35;;;;;;;7.10;4.85;;;384.70;2329.60;;;;;;5072802;28;20021;-58
2021/09/01 00:27:01;;;;;;;5.65;4.63;;;384.80;2329.60;;;;;;5073016;28;20028;-62
2021/09/01 00:29:26;;;;;;;7.15;4.45;;;384.80;2329.60;;;;;;5072512;28;20025;-61
2021/09/01 00:31:52;;;;;;;6.97;4.43;;;384.70;2329.60;;;;;;5077027;28;20510;-62
2021/09/01 00:34:18;;;;;;;4.70;3.97;;;384.70;2329.60;;;;;;5072585;28;20095;-61
2021/09/01 00:36:44;;;;;;;5.65;3.88;;;384.70;2329.60;;;;;;5072631;28;20040;-61
2021/09/01 00:39:09;;;;;;;8.50;4.88;;;384.80;2329.60;;;;;;5072502;28;20020;-61
2021/09/01 00:41:35;;;;;;;5.80;3.97;;;384.70;2329.60;;;;;;5072424;28;20062;-62
2021/09/01 00:44:23;;;;;;;6.32;4.20;;;384.70;2329.60;;;;;;5072354;28;20025;-62
2021/09/01 00:46:52;;;;;;;8.57;4.32;;;384.80;2329.60;;;;;;5072464;28;20103;-62
2021/09/01 00:49:18;;;;;;;6.32;4.43;;;384.70;2329.60;;;;;;5072338;28;20024;-59
2021/09/01 00:51:48;;;;;;;6.57;4.40;;;384.70;2329.60;;;;;;5072438;28;20044;-59
2021/09/01 00:54:20;;;;;;;5.35;4.38;;;384.70;2329.60;;;;;;5072465;28;20035;-59
2021/09/01 00:56:52;;;;;;;12.32;4.47;;;384.70;2329.60;;;;;;5072103;28;20025;-59
2021/09/01 00:59:19;;;;;;;8.27;4.13;;;384.80;2329.60;;;;;;5071852;28;20060;-61
2021/09/01 01:01:47;;;;;;;5.43;3.92;;;384.80;2329.60;;;;;;5072315;28;20021;-59
2021/09/01 01:04:12;;;;;;;4.93;3.72;;;384.80;2329.60;;;;;;5072282;28;20027;-59
2021/09/01 01:06:38;;;;;;;5.20;3.83;;;384.80;2329.60;;;;;;5071693;28;20115;-59
2021/09/01 01:09:04;;;;;;;5.15;3.85;;;384.90;2329.60;;;;;;5072179;28;20024;-59
2021/09/01 01:11:30;;;;;;;7.97;3.83;;;409.60;2355.20;;;;;;5071313;28;20036;-59
2021/09/01 01:13:55;;;;;;;6.15;3.75;;;409.70;2355.20;;;;;;5071938;28;20566;-59
2021/09/01 01:16:26;;;;;;;6.20;3.72;;;409.80;2355.20;;;;;;5071917;28;20040;-59
2021/09/01 01:18:56;;;;;;;5.88;3.95;;;410.00;2355.20;;;;;;5071888;28;20058;-58
2021/09/01 01:21:26;;;;;;;4.32;3.15;;;410.00;2355.20;;;;;;5071275;28;20375;-58
2021/09/01 01:24:01;;;;;;;5.13;3.30;;;410.10;2355.20;;;;;;5071907;28;20025;-58
2021/09/01 01:26:31;;;;;;;4.78;2.90;;;410.30;2355.20;;;;;;5071505;28;20125;-59
2021/09/01 01:29:00;;;;;;;3.65;2.45;;;410.40;2355.20;;;;;;5071530;28;20035;-59
2021/09/01 01:31:26;;;;;;;4.35;2.92;;;410.50;2355.20;;;;;;5071141;28;20025;-60
2021/09/01 01:33:53;;;;;;;4.35;2.72;;;435.20;2355.20;;;;;;5071381;28;20036;-58
2021/09/01 01:36:18;;;;;;;5.70;3.15;;;435.20;2355.20;;;;;;5071041;28;20471;-59
2021/09/01 01:38:44;;;;;;;5.03;3.45;;;435.20;2355.20;;;;;;5071714;28;20036;-60
2021/09/01 01:41:10;;;;;;;5.20;2.97;;;435.20;2355.20;;;;;;5071333;28;20024;-59
2021/09/01 01:43:37;;;;;;;4.90;2.90;;;435.20;2355.20;;;;;;5071145;28;20040;-61
2021/09/01 01:46:05;;;;;;;3.83;2.97;;;435.30;2355.20;;;;;;5071291;28;20021;-58
2021/09/01 01:48:32;;;;;;;5.07;2.85;;;435.30;2355.20;;;;;;5071134;28;20111;-58
2021/09/01 01:50:59;;;;;;;4.70;3.25;;;435.30;2355.20;;;;;;5070977;28;20490;-58
2021/09/01 01:53:25;;;;;;;5.30;3.30;;;435.30;2355.20;;;;;;5071014;28;20040;-57
2021/09/01 01:55:50;;;;;;;5.40;3.38;;;435.20;2355.20;;;;;;5070784;28;20487;-58
2021/09/01 01:58:16;;;;;;;5.53;3.22;;;435.20;2355.20;;;;;;5070747;28;20044;-59
2021/09/01 02:00:42;;;;;;;4.25;3.05;;;435.20;2355.20;;;;;;5070924;28;20040;-58
2021/09/01 02:03:08;;;;;;;6.05;2.90;;;435.20;2355.20;;;;;;5070823;28;20032;-58
2021/09/01 02:05:34;;;;;;;5.10;3.28;;;435.30;2355.20;;;;;;5070793;28;20483;-60
2021/09/01 02:07:59;;;;;;;4.18;2.80;;;435.20;2355.20;;;;;;5069492;28;20028;-59
2021/09/01 02:10:25;;;;;;;5.13;2.83;;;435.20;2355.20;;;;;;5070654;28;20028;-59
2021/09/01 02:12:51;;;;;;;6.28;3.63;;;435.20;2355.20;;;;;;5070878;28;20498;-58
2021/09/01 02:15:17;;;;;;;5.35;3.47;;;410.50;2355.20;;;;;;5070525;28;20025;-59
2021/09/01 02:17:43;;;;;;;4.75;3.22;;;410.50;2355.20;;;;;;5070727;28;20024;-59
2021/09/01 02:20:11;;;;;;;5.50;3.30;;;410.40;2355.20;;;;;;5070454;28;20025;-62
2021/09/01 02:22:38;;;;;;;6.57;3.70;;;410.30;2355.20;;;;;;5069776;28;20028;-61
2021/09/01 02:25:05;;;;;;;4.57;3.42;;;410.30;2355.20;;;;;;5070794;28;20100;-62
2021/09/01 02:27:31;;;;;;;5.60;3.63;;;410.30;2355.20;;;;;;5070366;28;20103;-61
2021/09/01 02:29:57;;;;;;;5.90;3.38;;;410.30;2355.20;;;;;;5070201;28;20055;-61
2021/09/01 02:32:23;;;;;;;4.90;3.00;;;410.30;2355.20;;;;;;5070418;28;20040;-61
2021/09/01 02:34:49;;;;;;;6.60;3.35;;;410.30;2355.20;;;;;;5069982;28;20085;-62
2021/09/01 02:37:15;;;;;;;4.63;3.28;;;410.30;2355.20;;;;;;5070716;28;20032;-60
2021/09/01 02:39:41;;;;;;;4.80;3.00;;;410.30;2355.20;;;;;;5070381;28;20099;-59
2021/09/01 02:42:07;;;;;;;6.63;3.63;;;410.30;2355.20;;;;;;5070249;28;20136;-59
2021/09/01 02:44:33;;;;;;;8.52;3.50;;;410.30;2355.20;;;;;;5070265;28;20024;-58
2021/09/01 02:46:59;;;;;;;7.72;3.70;;;410.30;2355.20;;;;;;5070026;28;20021;-59
2021/09/01 02:49:25;;;;;;;8.40;3.97;;;410.30;2355.20;;;;;;5070239;28;20893;-58
2021/09/01 02:51:51;;;;;;;6.93;3.20;;;409.90;2355.20;;;;;;5070369;28;20032;-64
2021/09/01 02:54:17;;;;;;;4.80;3.30;;;409.80;2355.20;;;;;;5070675;28;20024;-63
2021/09/01 02:56:43;;;;;;;4.60;3.30;;;409.90;2355.20;;;;;;5070227;28;20463;-62
2021/09/01 02:59:08;;;;;;;5.97;3.30;;;410.00;2355.20;;;;;;5069846;28;20020;-61
2021/09/01 03:01:34;;;;;;;5.70;3.60;;;410.20;2355.20;;;;;;5070009;28;20020;-62
2021/09/01 03:04:00;;;;;;;4.07;3.00;;;410.20;2355.20;;;;;;5069715;28;20383;-61
2021/09/01 03:06:25;;;;;;;8.40;3.88;;;410.20;2355.20;;;;;;5069621;28;20035;-60
2021/09/01 03:08:51;;;;;;;6.70;3.28;;;410.20;2355.20;;;;;;5070140;28;20020;-59
2021/09/01 03:11:17;;;;;;;4.22;3.08;;;410.20;2355.20;;;;;;5069996;28;20115;-62
2021/09/01 03:13:43;;;;;;;4.78;3.33;;;410.30;2355.20;;;;;;5070053;28;20493;-62
2021/09/01 03:16:10;;;;;;;5.75;4.15;;;410.30;2355.20;;;;;;5069621;28;20081;-60
2021/09/01 03:18:36;;;;;;;4.28;3.00;;;410.30;2355.20;;;;;;5069677;28;20021;-61
2021/09/01 03:21:02;;;;;;;3.70;2.80;;;410.40;2355.20;;;;;;5069733;28;20028;-61
2021/09/01 03:23:27;;;;;;;4.38;3.42;;;410.50;2355.20;;;;;;5069879;28;20490;-61
2021/09/01 03:25:53;;;;;;;5.95;3.05;;;435.20;2355.20;;;;;;5069858;28;20398;-59
2021/09/01 03:28:19;;;;;;;3.78;2.63;;;435.20;2355.20;;;;;;5069830;28;20029;-61
2021/09/01 03:30:44;;;;;;;4.75;2.97;;;435.30;2355.20;;;;;;5069746;28;20052;-60
2021/09/01 03:33:10;;;;;;;4.97;2.42;;;435.30;2355.20;;;;;;5070355;28;20040;-61
2021/09/01 03:35:36;;;;;;;4.72;3.10;;;435.40;2355.20;;;;;;5073271;28;20028;-59
2021/09/01 03:38:01;;;;;;;4.22;3.00;;;435.40;2355.20;;;;;;5073636;28;20475;-59
2021/09/01 03:40:27;;;;;;;4.10;2.67;;;435.40;2355.20;;;;;;5073588;28;20021;-59
2021/09/01 03:42:53;;;;;;;4.20;2.55;;;435.40;2355.20;;;;;;5073731;28;20448;-59
2021/09/01 03:45:19;;;;;;;4.45;3.20;;;435.40;2355.20;;;;;;5073347;28;20100;-59
2021/09/01 03:47:44;;;;;;;4.93;2.90;;;435.30;2355.20;;;;;;5073590;28;20056;-58
2021/09/01 03:50:12;;;;;;;3.85;2.65;;;435.40;2355.20;;;;;;5073468;28;20497;-59
2021/09/01 03:52:38;;;;;;;5.53;3.47;;;435.30;2355.20;;;;;;5072965;28;20098;-60
2021/09/01 03:55:09;;;;;;;5.25;3.10;;;435.40;2355.20;;;;;;5073333;28;20016;-60
2021/09/01 03:57:35;;;;;;;4.65;3.15;;;435.30;2355.20;;;;;;5073156;28;20052;-60
2021/09/01 04:00:07;;;;;;;5.03;2.72;;;435.30;2355.20;;;;;;5073210;28;20032;-61
2021/09/01 04:02:32;;;;;;;5.50;2.65;;;435.30;2355.20;;;;;;5073387;28;20104;-59
2021/09/01 04:04:58;;;;;;;3.97;2.40;;;435.40;2355.20;;;;;;5072885;28;20048;-59
2021/09/01 04:07:24;;;;;;;4.55;2.65;;;435.40;2355.20;;;;;;5073103;28;20549;-59
2021/09/01 04:09:49;;;;;;;5.07;2.72;;;435.50;2355.20;;;;;;5073022;28;20111;-59
2021/09/01 04:12:15;;;;;;;4.55;2.53;;;435.50;2355.20;;;;;;5073299;28;20056;-59
2021/09/01 04:14:41;;;;;;;4.30;2.85;;;435.60;2355.20;;;;;;5073179;28;20028;-59
2021/09/01 04:17:07;;;;;;;4.20;2.67;;;435.50;2355.20;;;;;;5072894;28;20177;-59
2021/09/01 04:19:32;;;;;;;3.53;2.75;;;435.60;2355.20;;;;;;5073015;28;20520;-59
2021/09/01 04:21:58;;;;;;;3.83;2.33;;;435.60;2355.20;;;;;;5071535;28;20039;-61
2021/09/01 04:24:24;;;;;;;5.45;2.97;;;435.60;2355.20;;;;;;5072889;28;20024;-59
2021/09/01 04:26:49;;;;;;;4.18;2.90;;;435.60;2355.20;;;;;;5072747;28;20111;-61
2021/09/01 04:29:16;;;;;;;3.97;2.50;;;435.70;2355.20;;;;;;5072849;28;20410;-60
2021/09/01 04:31:42;;;;;;;5.20;3.00;;;435.70;2355.20;;;;;;5072570;28;20032;-62
2021/09/01 04:34:08;;;;;;;10.10;3.65;;;435.70;2355.20;;;;;;5072460;28;20064;-61
2021/09/01 04:36:34;;;;;;;4.25;2.70;;;435.80;2355.20;;;;;;5072456;28;20063;-61
2021/09/01 04:38:59;;;;;;;4.55;2.85;;;435.80;2355.20;;;;;;5072623;28;20368;-62
2021/09/01 04:41:25;;;;;;;4.70;3.10;;;435.80;2355.20;;;;;;5072568;28;20557;-62
2021/09/01 04:43:51;;;;;;;3.38;2.35;;;435.90;2355.20;;;;;;5072466;28;20071;-62
2021/09/01 04:46:17;;;;;;;4.03;2.55;;;435.90;2355.20;;;;;;5071334;28;20111;-62
2021/09/01 04:48:42;;;;;;;3.58;2.53;;;436.00;2355.20;;;;;;5072415;28;20036;-61
2021/09/01 04:51:08;;;;;;;4.05;2.80;;;436.00;2355.20;;;;;;5072180;28;20040;-61
2021/09/01 04:53:34;;;;;;;4.55;2.70;;;436.10;2355.20;;;;;;5072113;28;20499;-62
2021/09/01 04:56:00;;;;;;;4.75;2.85;;;460.90;2380.80;;;;;;5071806;28;20025;-61
2021/09/01 04:58:26;;;;;;;4.80;2.55;;;461.10;2380.80;;;;;;5071781;28;20048;-62
2021/09/01 05:00:51;;;;;;;3.92;2.97;;;461.30;2380.80;;;;;;5072148;28;20020;-62
2021/09/01 05:03:17;;;;;;;4.60;2.70;;;461.50;2380.80;;;;;;5071981;28;20526;-61
2021/09/01 05:05:43;;;;;;;3.97;2.97;;;486.40;2380.80;;;;;;5072075;28;20040;-64
2021/09/01 05:08:09;;;;;;;4.47;3.03;;;512.90;2380.80;;;;;;5071825;28;20025;-60
2021/09/01 05:10:34;;;;;;;4.07;3.45;;;589.30;2432.00;;;;;;5072072;28;20053;-60
2021/09/01 05:13:00;;;;;;;5.00;3.28;;;640.40;2432.00;;;;;;5071504;28;20079;-60
2021/09/01 05:15:26;;;;;;;4.90;2.75;;;640.40;2355.20;;;;;;5071814;28;20032;-61
2021/09/01 05:17:51;;;;;;;4.72;3.28;;;666.30;2252.80;;;;;;5072022;28;20412;-62
2021/09/01 05:20:17;;;;;;;4.10;2.70;;;640.70;2227.20;;;;;;5071913;28;20017;-62
2021/09/01 05:22:48;;;;;;;4.47;2.75;;;589.30;2432.00;;;;;;5071800;28;20024;-62
2021/09/01 05:25:18;;;;;;;4.85;2.60;;;563.60;2432.00;;;;;;5071839;28;20021;-62
2021/09/01 05:27:49;;;;;;;4.15;2.95;;;538.30;2406.40;;;;;;5072000;28;20029;-60
2021/09/01 05:30:16;;;;;;;4.85;3.42;;;537.90;2406.40;;;;;;5071722;28;20112;-60
2021/09/01 05:32:43;;;;;;;4.28;2.97;;;512.90;2380.80;;;;;;5071229;28;20039;-60
2021/09/01 05:35:11;;;;;;;7.30;3.30;;;537.70;2406.40;;;;;;5071149;28;20082;-61
2021/09/01 05:37:37;;;;;;;6.00;3.80;;;537.80;2406.40;;;;;;5071229;28;20090;-61
2021/09/01 05:40:05;;;;;;;4.60;2.92;;;512.90;2380.80;;;;;;5071419;28;20059;-61
2021/09/01 05:42:32;;;;;;;5.07;3.30;;;512.90;2380.80;;;;;;5071280;28;20501;-61
2021/09/01 05:44:59;;;;;;;10.35;3.25;;;537.60;2406.40;;;;;;5071092;28;20070;-60
2021/09/01 05:47:26;;;;;;;4.38;2.95;;;512.90;2380.80;;;;;;5071052;28;20033;-61
2021/09/01 05:49:54;;;;;;;5.60;3.22;;;537.60;2406.40;;;;;;5071213;28;20052;-61
2021/09/01 05:52:21;;;;;;;4.72;4.22;;;563.60;2432.00;;;;;;5070851;28;20093;-61
2021/09/01 05:54:52;;;;;;;4.72;3.28;;;589.20;2432.00;;;;;;5071266;28;20052;-60
2021/09/01 05:57:24;;;;;;;7.05;4.07;;;614.50;2432.00;;;;;;5070638;28;20139;-61
2021/09/01 06:00:00;;;;;;;4.97;3.30;;;640.50;2355.20;;;;;;5070837;28;20077;-61
2021/09/01 06:02:52;;;;;;;4.38;3.50;;;665.60;2278.40;;;;;;5070567;28;20029;-60
2021/09/01 06:05:19;;;;;;;5.55;2.97;;;589.70;2432.00;;;;;;5070554;28;20033;-61
2021/09/01 06:07:55;;;;;;;6.40;3.60;;;589.30;2432.00;;;;;;5071032;28;20071;-61
2021/09/01 06:10:23;;;;;;;4.38;3.13;;;564.00;2432.00;;;;;;5070596;28;20478;-61
2021/09/01 06:12:53;;;;;;;4.43;2.67;;;538.40;2406.40;;;;;;5070458;28;20051;-60
2021/09/01 06:15:19;;;;;;;6.60;3.08;;;538.00;2406.40;;;;;;5070457;28;20032;-61
2021/09/01 06:17:44;;;;;;;4.95;3.55;;;537.70;2406.40;;;;;;5070984;28;20032;-61
2021/09/01 06:20:11;;;;;;;4.90;3.47;;;537.60;2406.40;;;;;;5070515;28;20386;-61
2021/09/01 06:22:36;;;;;;;5.28;2.97;;;512.90;2380.80;;;;;;5070609;28;20047;-61
2021/09/01 06:25:03;;;;;;;4.55;3.13;;;512.90;2380.80;;;;;;5070663;28;20467;-61
2021/09/01 06:27:29;;;;;;;6.57;3.25;;;537.90;2406.40;;;;;;5070453;28;20023;-61
2021/09/01 06:29:55;;;;;;;5.63;3.05;;;538.10;2406.40;;;;;;5070429;28;20099;-60
2021/09/01 06:32:21;;;;;;;5.57;3.20;;;538.40;2406.40;;;;;;5070374;28;20112;-60
2021/09/01 06:34:47;;;;;;;4.10;2.95;;;538.50;2406.40;;;;;;5070380;28;20021;-60
2021/09/01 06:37:12;;;;;;;4.63;2.97;;;563.50;2432.00;;;;;;5070485;28;20413;-63
2021/09/01 06:39:38;;;;;;;5.60;3.65;;;563.90;2432.00;;;;;;5070473;28;20032;-62
2021/09/01 06:42:04;;;;;;;4.75;3.20;;;588.80;2432.00;;;;;;5070636;28;20078;-63
2021/09/01 06:44:30;;;;;;;3.65;2.50;;;589.10;2432.00;;;;;;5069277;28;20032;-63
2021/09/01 06:46:55;;;;;;;5.20;3.53;;;564.10;2432.00;;;;;;5070264;28;20063;-63
2021/09/01 06:49:21;;;;;;;4.30;3.33;;;588.90;2432.00;;;;;;5070693;28;20063;-69
2021/09/01 06:51:47;;;;;;;6.40;3.60;;;588.90;2432.00;;;;;;5070353;28;20387;-62
2021/09/01 06:54:12;;;;;;;5.43;3.40;;;589.10;2432.00;;;;;;5068251;28;20024;-60
2021/09/01 06:56:38;;;;;;;3.35;2.97;;;589.20;2432.00;;;;;;5068293;28;20024;-60
2021/09/01 06:59:04;;;;;;;5.00;3.20;;;589.70;2432.00;;;;;;5068593;28;20028;-61
2021/09/01 07:01:29;;;;;;;5.25;4.43;;;615.20;2355.20;;;;;;5068253;28;20032;-60
2021/09/01 07:03:56;;;;;;;4.85;4.40;;;640.90;2278.40;;;;;;5068668;28;20078;-61
2021/09/01 07:06:22;;;;;;;6.63;6.13;;;691.40;2201.60;;;;;;5068421;28;20375;-61
2021/09/01 07:08:49;;;;;;;6.78;3.90;;;742.90;2022.40;;;;;;5074404;28;20036;-61
2021/09/01 07:11:15;;;;;;;6.43;3.92;;;717.30;2022.40;;;;;;5077051;28;20025;-61
2021/09/01 07:13:43;;;;;;;5.53;3.58;;;691.20;2073.60;;;;;;5076666;28;20039;-61
2021/09/01 07:16:09;;;;;;;7.28;3.70;;;665.60;2150.40;;;;;;5076519;28;20025;-61
2021/09/01 07:18:35;;;;;;;5.55;3.80;;;640.10;2201.60;;;;;;5076832;28;20028;-61
2021/09/01 07:21:01;;;;;;;5.30;3.97;;;614.80;2278.40;;;;;;5076395;28;20028;-60
2021/09/01 07:23:27;;;;;;;6.07;4.03;;;589.70;2329.60;;;;;;5076458;28;20107;-61
2021/09/01 07:25:53;;;;;;;5.07;4.13;;;614.40;2355.20;;;;;;5076631;28;20493;-60
2021/09/01 07:28:18;;;;;;;6.90;4.30;;;614.80;2304.00;;;;;;5076326;28;20554;-61
2021/09/01 07:30:44;;;;;;;5.65;4.60;;;640.30;2227.20;;;;;;5077014;28;20032;-61
2021/09/01 07:33:10;;;;;;;8.35;4.18;;;640.60;2201.60;;;;;;5076286;28;20044;-60
2021/09/01 07:35:35;;;;;;;5.85;4.32;;;640.50;2201.60;;;;;;5076780;28;20103;-61
2021/09/01 07:38:01;;;;;;;8.73;6.05;;;691.80;2073.60;;;;;;5076544;28;20364;-61
2021/09/01 07:40:27;;;;;;;9.07;6.75;;;742.40;1996.80;;;;;;5076439;28;20078;-63
2021/09/01 07:42:53;;;;;;;5.88;5.38;;;793.90;1843.20;;;;;;5076375;28;20499;-61
2021/09/01 07:45:19;;;;;;;7.13;6.43;;;794.40;1715.20;;;;;;5076183;28;20375;-62
2021/09/01 07:47:47;;;;;;;7.78;5.00;;;819.90;1664.00;;;;;;5076431;28;20032;-62
2021/09/01 07:50:12;;;;;;;6.28;5.03;;;819.30;1612.80;;;;;;5076791;28;20028;-61
2021/09/01 07:52:38;;;;;;;5.30;4.63;;;743.10;1715.20;;;;;;5076030;28;20028;-62
2021/09/01 07:55:04;;;;;;;5.38;4.47;;;716.80;1843.20;;;;;;5076455;28;20032;-62
2021/09/01 07:57:30;;;;;;;5.20;4.70;;;691.40;1868.80;;;;;;5075947;28;20048;-62
2021/09/01 07:59:57;;;;;;;8.75;4.78;;;665.70;1945.60;;;;;;5076181;28;20029;-61
2021/09/01 08:02:22;;;;;;;4.88;4.32;;;640.60;1996.80;;;;;;5076050;28;20028;-61
2021/09/01 08:04:48;;;;;;;9.05;5.10;;;640.30;2022.40;;;;;;5075755;28;20077;-61
2021/09/01 08:07:15;;;;;;;5.65;4.50;;;640.70;2022.40;;;;;;5076473;28;20040;-61
2021/09/01 08:09:41;;;;;;;6.05;5.18;;;640.90;1996.80;;;;;;5075908;28;20374;-61
2021/09/01 08:12:07;;;;;;;6.95;5.32;;;666.40;1971.20;;;;;;5075953;28;20028;-61
2021/09/01 08:14:33;;;;;;;5.78;4.93;;;717.10;1868.80;;;;;;5076336;28;20081;-61
2021/09/01 08:16:58;;;;;;;6.15;4.65;;;691.90;1817.60;;;;;;5075898;28;20039;-59
2021/09/01 08:19:24;;;;;;;6.30;5.05;;;691.70;1868.80;;;;;;5074356;28;20523;-61
2021/09/01 08:21:50;;;;;;;5.00;4.47;;;691.60;1843.20;;;;;;5072342;28;20021;-60
2021/09/01 08:24:15;;;;;;;5.50;4.90;;;691.30;1894.40;;;;;;5073059;28;20032;-60
2021/09/01 08:26:41;;;;;;;5.68;4.72;;;691.30;1894.40;;;;;;5072770;28;20131;-60
2021/09/01 08:29:07;;;;;;;5.97;4.75;;;666.00;1920.00;;;;;;5072809;28;20055;-60
2021/09/01 08:31:32;;;;;;;7.65;4.90;;;665.70;1945.60;;;;;;5072788;28;20463;-60
2021/09/01 08:33:58;;;;;;;7.13;5.50;;;665.70;1920.00;;;;;;5072599;28;20028;-60
2021/09/01 08:36:24;;;;;;;6.28;4.57;;;640.80;1920.00;;;;;;5072631;28;20451;-60
2021/09/01 08:38:49;;;;;;;5.50;4.88;;;640.80;1945.60;;;;;;5072574;28;20036;-59
2021/09/01 08:41:19;;;;;;;6.57;4.80;;;640.70;1971.20;;;;;;5072676;28;20459;-60
2021/09/01 08:43:46;;;;;;;5.70;4.93;;;640.70;1945.60;;;;;;5072678;28;20070;-60
2021/09/01 08:46:13;;;;;;;6.38;4.70;;;665.60;1971.20;;;;;;5072479;28;20490;-60
2021/09/01 08:48:40;;;;;;;5.35;4.63;;;665.70;1971.20;;;;;;5072407;28;20376;-59
2021/09/01 08:51:07;;;;;;;6.90;5.03;;;665.70;1945.60;;;;;;5072605;28;20090;-60
2021/09/01 08:53:33;;;;;;;8.32;6.00;;;666.30;1920.00;;;;;;5072251;28;20041;-59
2021/09/01 08:55:58;;;;;;;5.68;5.07;;;666.20;1920.00;;;;;;5072145;28;20032;-59
2021/09/01 08:58:24;;;;;;;7.47;5.32;;;666.20;1920.00;;;;;;5072070;28;20048;-60
2021/09/01 09:00:50;;;;;;;9.13;5.40;;;666.20;1868.80;;;;;;5071936;28;20395;-61
2021/09/01 09:03:15;;;;;;;6.53;5.68;;;666.50;1894.40;;;;;;5071979;28;20025;-60
2021/09/01 09:05:43;;;;;;;6.40;4.97;;;691.40;1868.80;;;;;;5071899;28;20035;-59
2021/09/01 09:08:13;;;;;;;7.50;4.85;;;691.50;1817.60;;;;;;5071872;28;20043;-60
2021/09/01 09:10:45;;;;;;;5.43;4.60;;;691.60;1792.00;;;;;;5072125;28;20086;-60
2021/09/01 09:13:23;;;;;;;7.03;4.68;;;691.60;1817.60;;;;;;5071827;28;20039;-60
2021/09/01 09:16:06;;;;;;;6.47;5.07;;;691.70;1792.00;;;;;;5071605;28;20017;-60
2021/09/01 09:18:33;;;;;;;7.00;5.57;;;666.50;1817.60;;;;;;5071874;28;20020;-60
2021/09/01 09:21:15;;;;;;;5.78;5.00;;;666.20;1843.20;;;;;;5071952;28;20035;-59
2021/09/01 09:23:45;;;;;;;6.40;5.00;;;666.00;1868.80;;;;;;5071951;28;20459;-60
2021/09/01 09:26:23;;;;;;;7.30;4.90;;;665.80;1894.40;;;;;;5071903;28;20056;-60
2021/09/01 09:29:09;;;;;;;7.53;4.95;;;640.70;1868.80;;;;;;5071598;28;20056;-59
2021/09/01 09:31:36;;;;;;;6.85;4.28;;;640.30;1920.00;;;;;;5071230;28;20028;-59
2021/09/01 09:34:10;;;;;;;7.47;4.78;;;640.30;1920.00;;;;;;5071467;28;20028;-61
2021/09/01 09:36:37;;;;;;;6.03;4.40;;;640.10;1920.00;;;;;;5071149;28;20033;-59
2021/09/01 09:39:05;;;;;;;7.50;4.97;;;640.00;1920.00;;;;;;5070105;28;20047;-59
2021/09/01 09:41:31;;;;;;;5.85;4.57;;;615.30;1945.60;;;;;;5071609;28;20031;-59
2021/09/01 09:43:58;;;;;;;5.93;5.03;;;640.00;1920.00;;;;;;5071423;28;20080;-59
2021/09/01 09:46:25;;;;;;;8.98;4.85;;;640.10;1920.00;;;;;;5071278;28;20040;-59
2021/09/01 09:48:51;;;;;;;6.18;4.57;;;640.20;1920.00;;;;;;5071199;28;20055;-59
2021/09/01 09:51:35;;;;;;;6.28;5.28;;;640.20;1894.40;;;;;;5071041;28;20073;-59
2021/09/01 09:54:19;;;;;;;5.97;4.88;;;640.20;1920.00;;;;;;5071254;28;20063;-58
2021/09/01 09:56:46;;;;;;;6.72;5.03;;;640.10;1920.00;;;;;;5071111;28;20169;-59
2021/09/01 09:59:19;;;;;;;7.93;4.95;;;615.30;1868.80;;;;;;5071213;28;20067;-58
2021/09/01 10:01:46;;;;;;;7.68;4.97;;;614.90;1920.00;;;;;;5071320;28;20028;-58
2021/09/01 10:04:12;;;;;;;6.15;3.95;;;615.00;1945.60;;;;;;5070873;28;20359;-59
2021/09/01 10:06:37;;;;;;;7.20;4.28;;;614.80;1945.60;;;;;;5070386;28;20030;-59
2021/09/01 10:09:04;;;;;;;8.10;5.22;;;614.40;1996.80;;;;;;5070656;28;20029;-58
2021/09/01 10:11:33;;;;;;;6.45;4.88;;;589.70;1996.80;;;;;;5070397;28;20029;-59
2021/09/01 10:13:59;;;;;;;6.00;4.55;;;614.50;1996.80;;;;;;5070307;28;20490;-58
2021/09/01 10:16:32;;;;;;;6.28;4.65;;;614.90;1971.20;;;;;;5070813;28;20017;-59
2021/09/01 10:19:19;;;;;;;6.00;4.28;;;615.20;1920.00;;;;;;5070523;28;20067;-60
2021/09/01 10:21:55;;;;;;;8.77;4.88;;;640.10;1868.80;;;;;;5070980;28;20509;-61
2021/09/01 10:24:28;;;;;;;5.82;4.75;;;640.10;1894.40;;;;;;5070418;28;20502;-61
2021/09/01 10:27:05;;;;;;;16.58;5.35;;;640.20;1868.80;;;;;;5070560;28;20029;-61
2021/09/01 10:29:50;;;;;;;5.75;4.38;;;640.30;1868.80;;;;;;5070502;28;20036;-61
2021/09/01 10:32:19;;;;;;;5.72;4.63;;;640.50;1843.20;;;;;;5070564;28;20086;-60
2021/09/01 10:34:45;;;;;;;5.57;4.15;;;640.50;1817.60;;;;;;5070494;28;20038;-61
2021/09/01 10:37:37;;;;;;;8.57;4.70;;;640.60;1817.60;;;;;;5070462;28;20032;-61
2021/09/01 10:40:05;;;;;;;6.22;4.15;;;640.60;1817.60;;;;;;5069212;28;20021;-61
2021/09/01 10:42:46;;;;;;;5.57;4.40;;;640.50;1817.60;;;;;;5068482;28;20443;-60
2021/09/01 10:45:20;;;;;;;5.30;4.38;;;640.40;1843.20;;;;;;5070341;28;20025;-60
2021/09/01 10:47:52;;;;;;;6.82;4.47;;;640.40;1843.20;;;;;;5070347;28;20103;-61
2021/09/01 10:50:28;;;;;;;5.97;4.70;;;640.50;1843.20;;;;;;5070096;28;20028;-61
2021/09/01 10:53:03;;;;;;;6.95;4.68;;;640.50;1843.20;;;;;;5070156;28;20036;-60
2021/09/01 10:55:30;;;;;;;7.13;4.03;;;640.90;1817.60;;;;;;5070131;28;20082;-62
2021/09/01 10:58:15;;;;;;;5.75;3.90;;;665.70;1843.20;;;;;;5070004;28;20052;-60
2021/09/01 11:00:41;;;;;;;6.50;4.72;;;665.90;1817.60;;;;;;5070048;28;20039;-60
2021/09/01 11:03:07;;;;;;;5.70;4.05;;;640.90;1817.60;;;;;;5069889;28;20099;-62
2021/09/01 11:05:33;;;;;;;6.28;4.63;;;640.80;1817.60;;;;;;5069930;28;20075;-59
2021/09/01 11:07:59;;;;;;;5.90;4.05;;;640.50;1843.20;;;;;;5069959;28;20356;-61
2021/09/01 11:10:29;;;;;;;9.60;4.35;;;640.50;1843.20;;;;;;5070163;28;20024;-61
2021/09/01 11:13:02;;;;;;;5.15;4.25;;;640.60;1792.00;;;;;;5070027;28;20116;-62
2021/09/01 11:15:42;;;;;;;6.35;4.82;;;640.70;1817.60;;;;;;5069888;28;20021;-62
2021/09/01 11:18:08;;;;;;;5.85;3.70;;;640.90;1843.20;;;;;;5069832;28;20032;-60
2021/09/01 11:20:51;;;;;;;5.63;4.47;;;640.90;1817.60;;;;;;5070137;28;20108;-61
2021/09/01 11:23:17;;;;;;;5.78;3.80;;;640.70;1817.60;;;;;;5070051;28;20115;-61
2021/09/01 11:25:42;;;;;;;5.50;4.75;;;640.50;1792.00;;;;;;5069946;28;20115;-60
2021/09/01 11:28:12;;;;;;;8.50;4.47;;;640.30;1792.00;;;;;;5068611;28;20033;-60
2021/09/01 11:30:38;;;;;;;5.18;4.38;;;640.30;1792.00;;;;;;5068060;28;20032;-62
2021/09/01 11:33:04;;;;;;;7.65;4.40;;;640.30;1766.40;;;;;;5068056;28;20331;-63
2021/09/01 11:35:29;;;;;;;6.18;4.18;;;640.40;1740.80;;;;;;5067908;28;20494;-62
2021/09/01 11:38:00;;;;;;;5.45;4.15;;;640.40;1766.40;;;;;;5068379;28;20028;-62
2021/09/01 11:40:42;;;;;;;7.18;4.15;;;640.60;1766.40;;;;;;5068225;28;20031;-62
2021/09/01 11:43:12;;;;;;;5.38;4.20;;;640.40;1792.00;;;;;;5067369;28;20032;-60
2021/09/01 11:45:46;;;;;;;7.90;4.65;;;640.00;1792.00;;;;;;5068054;28;20021;-62
2021/09/01 11:48:11;;;;;;;;;;;615.30;1843.20;;;;;;5068692;28;20029;-60
2021/09/01 11:50:44;;;;;;;5.50;4.53;;;615.00;1843.20;;;;;;5067998;28;19916;-60
2021/09/01 11:53:14;;;;;;;;;;;614.50;1868.80;;;;;;5068297;28;20044;-60
2021/09/01 11:55:41;;;;;;;5.18;4.38;;;589.60;1894.40;;;;;;5070385;28;19904;-60
2021/09/01 11:58:14;;;;;;;5.28;3.70;;;589.30;1920.00;;;;;;5071489;28;20380;-63
2021/09/01 12:00:42;;;;;;;6.47;4.40;;;589.10;1945.60;;;;;;5071689;28;20249;-61
2021/09/01 12:03:10;;;;;;;8.55;4.10;;;589.10;1971.20;;;;;;5070184;28;20040;-62
2021/09/01 12:05:36;;;;;;;9.73;4.60;;;589.00;1971.20;;;;;;5071612;28;20031;-61
2021/09/01 12:08:02;;;;;;;6.15;4.35;;;588.80;2022.40;;;;;;5071076;28;20036;-62
2021/09/01 12:10:31;;;;;;;8.05;4.57;;;588.80;2022.40;;;;;;5071378;28;20035;-62
2021/09/01 12:13:03;;;;;;;5.90;4.00;;;588.90;2022.40;;;;;;5071206;28;20061;-60
2021/09/01 12:15:29;;;;;;;6.65;4.68;;;588.80;1996.80;;;;;;5071482;28;20162;-62
2021/09/01 12:18:02;;;;;;;6.57;4.50;;;564.10;1996.80;;;;;;5071375;28;20119;-62
2021/09/01 12:20:28;;;;;;;5.35;3.97;;;588.80;2022.40;;;;;;5070942;28;20032;-61